Time;durP1;ratioP1;P1;durP2;ratioP2;P2;SDS_P1;SDS_P2;PMS_P1;PMS_P2;Temp;Humidity;BMP_temperature;BMP_pressure;BME280_temperature;BME280_humidity;BME280_pressure;Samples;Min_cycle;Max_cycle;Signal;HPM_P1;HPM_P2
2022/03/28 00:01:05;;;;;;;10.45;5.45;;;8.40;42.50;;;;;;5064502;28;20043;-61
2022/03/28 00:03:30;;;;;;;15.63;5.90;;;8.30;42.70;;;;;;5055889;28;20029;-62
2022/03/28 00:05:56;;;;;;;8.95;5.03;;;8.30;42.80;;;;;;5048179;28;20022;-62
2022/03/28 00:08:22;;;;;;;10.80;5.28;;;8.30;42.90;;;;;;5048486;28;20319;-65
2022/03/28 00:10:48;;;;;;;10.20;5.38;;;8.20;42.90;;;;;;5053310;28;20079;-61
2022/03/28 00:13:13;;;;;;;21.15;6.03;;;8.20;43.00;;;;;;5045909;28;20037;-61
2022/03/28 00:15:39;;;;;;;12.52;5.78;;;8.20;43.20;;;;;;5047268;28;20037;-61
2022/03/28 00:18:07;;;;;;;12.18;5.75;;;8.10;43.30;;;;;;5051519;28;20032;-61
2022/03/28 00:20:33;;;;;;;11.20;5.68;;;8.10;43.40;;;;;;5053138;28;20052;-63
2022/03/28 00:22:58;;;;;;;13.73;6.18;;;8.00;43.30;;;;;;5046269;28;20044;-62
2022/03/28 00:25:24;;;;;;;14.30;6.35;;;8.00;43.50;;;;;;5045143;28;20422;-62
2022/03/28 00:27:50;;;;;;;14.70;6.22;;;8.00;43.50;;;;;;5049434;28;20378;-63
2022/03/28 00:30:15;;;;;;;20.88;6.90;;;7.90;43.70;;;;;;5045370;28;20033;-63
2022/03/28 00:32:41;;;;;;;37.40;16.13;;;7.90;43.80;;;;;;5045157;28;20025;-63
2022/03/28 00:35:07;;;;;;;31.88;14.70;;;7.90;44.00;;;;;;5026654;28;20382;-64
2022/03/28 00:37:33;;;;;;;24.38;11.98;;;7.80;43.70;;;;;;5054331;28;20060;-63
2022/03/28 00:39:59;;;;;;;21.02;11.85;;;7.80;44.20;;;;;;5025963;28;20033;-63
2022/03/28 00:42:25;;;;;;;23.77;10.82;;;7.80;44.30;;;;;;5069601;28;20413;-63
2022/03/28 00:44:51;;;;;;;19.58;9.32;;;7.70;44.40;;;;;;5049189;28;20022;-63
2022/03/28 00:47:17;;;;;;;17.52;8.40;;;7.70;44.70;;;;;;5046690;28;20028;-63
2022/03/28 00:49:42;;;;;;;16.35;7.90;;;7.70;44.70;;;;;;5032286;28;20067;-63
2022/03/28 00:52:09;;;;;;;18.27;7.15;;;7.60;44.80;;;;;;5052020;28;20025;-63
2022/03/28 00:54:35;;;;;;;12.20;6.07;;;7.60;45.00;;;;;;5025825;28;20068;-63
2022/03/28 00:57:01;;;;;;;11.57;6.03;;;7.60;44.90;;;;;;5037027;28;20021;-62
2022/03/28 00:59:31;;;;;;;17.02;6.35;;;7.60;45.00;;;;;;5047464;28;20030;-61
2022/03/28 01:01:57;;;;;;;14.45;5.95;;;7.50;45.10;;;;;;5056670;28;20119;-62
2022/03/28 01:04:22;;;;;;;14.43;6.68;;;7.50;45.20;;;;;;5029967;28;20053;-61
2022/03/28 01:06:48;;;;;;;14.95;7.15;;;7.50;45.20;;;;;;5055251;28;20033;-63
2022/03/28 01:09:15;;;;;;;10.40;5.80;;;7.50;45.20;;;;;;5044263;28;20033;-63
2022/03/28 01:11:43;;;;;;;13.60;6.85;;;7.40;45.20;;;;;;5059483;28;20021;-63
2022/03/28 01:14:09;;;;;;;12.27;6.35;;;7.40;45.40;;;;;;5048840;28;20081;-63
2022/03/28 01:18:05;;;;;;;11.10;6.35;;;7.40;45.50;;;;;;5048184;28;20030;-63
2022/03/28 01:19:21;;;;;;;12.20;6.40;;;7.30;45.60;;;;;;5047528;28;20065;-61
2022/03/28 01:21:46;;;;;;;15.05;5.97;;;7.30;45.40;;;;;;5059993;28;20033;-62
2022/03/28 01:24:12;;;;;;;15.65;6.43;;;7.30;45.60;;;;;;5043580;28;20657;-63
2022/03/28 01:26:38;;;;;;;12.88;6.32;;;7.20;46.00;;;;;;5049004;28;20457;-63
2022/03/28 01:31:39;;;;;;;15.60;6.43;;;7.20;46.10;;;;;;5371463;23;20140;-62
2022/03/28 01:34:05;;;;;;;11.52;6.28;;;7.10;46.00;;;;;;5062221;28;20384;-61
2022/03/28 01:36:31;;;;;;;12.73;7.00;;;7.10;46.10;;;;;;5073414;28;20020;-62
2022/03/28 01:38:57;;;;;;;14.63;5.90;;;7.10;46.30;;;;;;5078486;28;20036;-63
2022/03/28 01:41:23;;;;;;;13.85;6.00;;;7.00;46.40;;;;;;5079159;28;20033;-64
2022/03/28 01:43:48;;;;;;;13.13;6.55;;;7.00;46.50;;;;;;5080398;28;20089;-62
2022/03/28 01:46:14;;;;;;;11.85;6.50;;;6.90;46.50;;;;;;5066924;28;20029;-63
2022/03/28 01:48:40;;;;;;;11.38;6.03;;;6.90;46.60;;;;;;5069278;28;20021;-62
2022/03/28 01:51:05;;;;;;;12.57;6.15;;;6.90;46.80;;;;;;5072949;28;20028;-62
2022/03/28 01:53:31;;;;;;;7.82;5.18;;;6.80;46.80;;;;;;5071168;28;20033;-62
2022/03/28 01:55:57;;;;;;;13.77;6.60;;;6.80;46.90;;;;;;5067217;28;20452;-63
2022/03/28 01:58:22;;;;;;;12.05;6.28;;;6.80;47.10;;;;;;5067672;28;20104;-62
2022/03/28 02:00:48;;;;;;;11.85;6.22;;;6.80;47.20;;;;;;5067041;28;20040;-61
2022/03/28 02:03:14;;;;;;;16.55;6.43;;;6.70;47.30;;;;;;5078028;28;20029;-63
2022/03/28 02:05:39;;;;;;;13.95;6.10;;;6.70;47.50;;;;;;5063456;28;20068;-63
2022/03/28 02:08:05;;;;;;;16.45;6.95;;;6.70;47.50;;;;;;5068017;28;20109;-63
2022/03/28 02:10:31;;;;;;;11.98;6.28;;;6.60;47.60;;;;;;5066665;28;20055;-63
2022/03/28 02:12:56;;;;;;;10.85;6.55;;;6.60;47.70;;;;;;5065915;28;20029;-62
2022/03/28 02:15:23;;;;;;;12.80;6.38;;;6.60;47.80;;;;;;5066900;28;20040;-62
2022/03/28 02:17:48;;;;;;;14.82;6.78;;;6.60;47.90;;;;;;5067550;28;20084;-62
2022/03/28 02:20:15;;;;;;;12.70;5.82;;;6.50;47.90;;;;;;5069773;28;20100;-62
2022/03/28 02:22:42;;;;;;;12.88;6.13;;;6.50;47.90;;;;;;5058561;28;20025;-62
2022/03/28 02:25:09;;;;;;;12.20;6.60;;;6.50;47.80;;;;;;5075047;28;20116;-62
2022/03/28 02:27:36;;;;;;;12.80;6.57;;;6.50;47.80;;;;;;5075610;28;20080;-62
2022/03/28 02:30:04;;;;;;;17.58;6.35;;;6.40;47.80;;;;;;5074825;28;20048;-62
2022/03/28 02:32:30;;;;;;;16.08;6.78;;;6.40;48.20;;;;;;5066774;28;20413;-63
2022/03/28 02:34:56;;;;;;;15.25;6.32;;;6.40;48.20;;;;;;5068260;28;20028;-62
2022/03/28 02:37:21;;;;;;;12.45;6.68;;;6.40;48.30;;;;;;5070341;28;20090;-62
2022/03/28 02:39:47;;;;;;;16.52;7.15;;;6.40;48.50;;;;;;5068362;28;20024;-62
2022/03/28 02:42:14;;;;;;;14.30;6.53;;;6.30;48.50;;;;;;5085225;28;20028;-62
2022/03/28 02:44:39;;;;;;;13.95;7.25;;;6.30;48.50;;;;;;5064252;28;20024;-62
2022/03/28 02:47:05;;;;;;;11.45;6.50;;;6.30;48.60;;;;;;5072687;28;20077;-61
2022/03/28 02:49:31;;;;;;;13.80;7.00;;;6.30;48.90;;;;;;5075145;28;20029;-62
2022/03/28 02:51:57;;;;;;;15.10;6.88;;;6.30;48.80;;;;;;5068968;28;20499;-61
2022/03/28 02:54:22;;;;;;;18.25;7.28;;;6.20;48.80;;;;;;5062391;28;20056;-61
2022/03/28 02:56:48;;;;;;;23.83;7.28;;;6.20;48.90;;;;;;5051710;28;20030;-63
2022/03/28 02:59:14;;;;;;;14.02;6.50;;;6.20;48.90;;;;;;5067531;28;20048;-63
2022/03/28 03:01:40;;;;;;;18.88;7.35;;;6.20;48.80;;;;;;5067297;28;20040;-63
2022/03/28 03:04:06;;;;;;;19.38;8.57;;;6.10;48.80;;;;;;5070112;28;20028;-63
2022/03/28 03:06:31;;;;;;;22.65;9.23;;;6.10;49.00;;;;;;5066202;28;20024;-63
2022/03/28 03:08:57;;;;;;;21.40;8.23;;;6.10;49.00;;;;;;5083016;28;20040;-62
2022/03/28 03:11:22;;;;;;;21.92;8.57;;;6.00;48.90;;;;;;5067225;28;20021;-63
2022/03/28 03:13:49;;;;;;;17.35;7.50;;;6.00;48.90;;;;;;5064836;28;20037;-63
2022/03/28 03:16:15;;;;;;;14.80;7.10;;;6.00;49.00;;;;;;5068811;28;20017;-64
2022/03/28 03:18:41;;;;;;;16.33;7.70;;;6.00;49.20;;;;;;5057863;28;20079;-62
2022/03/28 03:21:07;;;;;;;14.95;7.68;;;5.90;49.20;;;;;;5065917;28;20136;-61
2022/03/28 03:23:33;;;;;;;18.45;7.57;;;5.90;49.30;;;;;;5071261;28;20020;-62
2022/03/28 03:25:58;;;;;;;18.70;7.60;;;5.90;49.30;;;;;;5058509;28;20037;-62
2022/03/28 03:28:25;;;;;;;18.90;7.20;;;5.90;49.40;;;;;;5072386;28;20036;-62
2022/03/28 03:30:51;;;;;;;15.70;7.43;;;5.80;49.50;;;;;;5068790;28;20338;-63
2022/03/28 03:33:16;;;;;;;22.90;8.27;;;5.80;49.60;;;;;;5046915;28;20043;-61
2022/03/28 03:35:42;;;;;;;24.38;9.07;;;5.80;49.60;;;;;;5045127;28;20025;-61
2022/03/28 03:38:09;;;;;;;20.05;8.45;;;5.80;49.70;;;;;;5047780;28;20021;-63
2022/03/28 03:40:35;;;;;;;19.63;8.40;;;5.80;49.80;;;;;;5044805;28;20090;-62
2022/03/28 03:43:01;;;;;;;23.90;8.38;;;5.70;49.80;;;;;;5048223;28;20021;-62
2022/03/28 03:45:27;;;;;;;15.05;8.10;;;5.70;49.80;;;;;;5045191;28;20032;-62
2022/03/28 03:47:52;;;;;;;18.85;8.05;;;5.70;49.80;;;;;;5046392;28;20028;-61
2022/03/28 03:50:18;;;;;;;20.27;8.50;;;5.60;49.90;;;;;;5045735;28;20112;-62
2022/03/28 03:52:44;;;;;;;16.73;8.23;;;5.60;49.80;;;;;;5045493;28;20092;-61
2022/03/28 03:55:10;;;;;;;18.48;7.82;;;5.60;49.70;;;;;;5058803;28;20029;-61
2022/03/28 03:57:35;;;;;;;23.58;9.98;;;5.60;49.50;;;;;;5050401;28;20472;-62
2022/03/28 04:00:03;;;;;;;26.75;9.65;;;5.60;49.60;;;;;;5028653;28;20025;-62
2022/03/28 04:02:28;;;;;;;33.33;10.80;;;5.50;49.70;;;;;;5043577;28;20077;-61
2022/03/28 04:04:54;;;;;;;23.40;9.70;;;5.50;49.60;;;;;;5049183;28;20093;-63
2022/03/28 04:07:20;;;;;;;28.63;10.00;;;5.50;49.60;;;;;;5044927;28;20071;-63
2022/03/28 04:09:46;;;;;;;22.27;10.27;;;5.50;49.70;;;;;;5045610;28;20097;-63
2022/03/28 04:12:12;;;;;;;21.60;10.40;;;5.40;49.90;;;;;;5044067;28;20029;-61
2022/03/28 04:14:38;;;;;;;33.97;10.07;;;5.40;50.10;;;;;;5050194;28;20021;-62
2022/03/28 04:17:04;;;;;;;19.27;9.15;;;5.40;50.30;;;;;;5043925;28;20041;-62
2022/03/28 04:19:30;;;;;;;17.70;9.93;;;5.30;50.50;;;;;;5045659;28;20029;-63
2022/03/28 04:21:55;;;;;;;20.30;9.55;;;5.40;50.70;;;;;;5046588;28;20064;-61
2022/03/28 04:24:21;;;;;;;19.75;9.57;;;5.30;50.50;;;;;;5053572;28;20033;-62
2022/03/28 04:26:47;;;;;;;20.55;9.48;;;5.40;50.60;;;;;;5044686;28;20040;-63
2022/03/28 04:29:13;;;;;;;20.40;9.43;;;5.30;50.70;;;;;;5029877;28;20021;-62
2022/03/28 04:31:40;;;;;;;23.08;10.32;;;5.30;51.30;;;;;;5060305;28;20072;-61
2022/03/28 04:34:07;;;;;;;24.85;9.93;;;5.20;50.70;;;;;;5074359;28;20513;-62
2022/03/28 04:36:33;;;;;;;17.00;8.55;;;5.20;50.80;;;;;;5085202;28;20382;-62
2022/03/28 04:38:59;;;;;;;20.20;8.80;;;5.20;50.60;;;;;;5085873;28;20025;-61
2022/03/28 04:41:25;;;;;;;17.75;8.50;;;5.20;50.60;;;;;;5087292;28;20036;-61
2022/03/28 04:43:51;;;;;;;21.60;9.45;;;5.10;50.70;;;;;;5088712;28;20028;-61
2022/03/28 04:46:17;;;;;;;17.90;8.88;;;5.10;50.80;;;;;;5072306;28;20081;-61
2022/03/28 04:51:28;;;;;;;14.38;7.80;;;5.10;51.70;;;;;;5381653;23;20117;-60
2022/03/28 04:54:14;;;;;;;19.73;8.50;;;5.10;50.90;;;;;;5014679;28;20045;-60
2022/03/28 04:56:39;;;;;;;22.23;8.80;;;5.30;50.80;;;;;;5025598;28;20078;-61
2022/03/28 04:59:06;;;;;;;17.08;8.45;;;5.00;50.80;;;;;;5022291;28;20042;-60
2022/03/28 05:01:32;;;;;;;17.48;9.02;;;5.00;50.90;;;;;;5009232;28;20041;-60
2022/03/28 05:03:58;;;;;;;21.98;8.20;;;5.00;50.90;;;;;;5025418;28;20042;-60
2022/03/28 05:06:23;;;;;;;24.10;9.45;;;5.00;51.10;;;;;;5023428;28;20547;-60
2022/03/28 05:08:49;;;;;;;19.65;9.60;;;5.00;51.30;;;;;;5037016;28;20045;-60
2022/03/28 05:11:15;;;;;;;19.35;9.80;;;4.90;51.40;;;;;;5013526;28;20030;-60
2022/03/28 05:13:40;;;;;;;17.27;9.55;;;4.90;51.60;;;;;;5026972;28;20064;-60
2022/03/28 05:16:06;;;;;;;27.38;10.15;;;4.90;51.80;;;;;;5026916;28;20030;-61
2022/03/28 05:18:32;;;;;;;21.52;9.43;;;4.90;51.70;;;;;;5029062;28;20061;-60
2022/03/28 05:20:57;;;;;;;19.27;8.98;;;4.90;51.50;;;;;;5036733;28;20064;-59
2022/03/28 05:23:23;;;;;;;23.48;9.77;;;5.10;51.50;;;;;;5029648;28;20129;-60
2022/03/28 05:25:49;;;;;;;20.77;9.52;;;5.20;51.60;;;;;;5042269;28;20053;-61
2022/03/28 05:28:14;;;;;;;19.75;9.85;;;4.90;51.50;;;;;;5055625;28;20021;-60
2022/03/28 05:30:40;;;;;;;20.60;10.45;;;4.90;51.40;;;;;;5056435;28;20025;-59
2022/03/28 05:33:07;;;;;;;21.83;10.15;;;4.90;51.70;;;;;;5076149;28;20017;-61
2022/03/28 05:35:34;;;;;;;24.42;10.35;;;4.90;51.80;;;;;;5067601;28;20021;-60
2022/03/28 05:38:00;;;;;;;23.60;10.40;;;4.90;51.90;;;;;;5070185;28;20033;-60
2022/03/28 05:40:26;;;;;;;27.17;10.73;;;4.90;51.90;;;;;;5069813;28;20028;-61
2022/03/28 05:42:51;;;;;;;26.35;11.48;;;4.90;52.10;;;;;;5068615;28;20033;-61
2022/03/28 05:45:18;;;;;;;32.67;13.25;;;4.90;52.20;;;;;;5077255;28;20040;-60
2022/03/28 05:47:43;;;;;;;29.17;12.60;;;4.90;52.20;;;;;;5067277;28;20029;-60
2022/03/28 05:50:09;;;;;;;27.30;12.68;;;5.10;52.10;;;;;;5080252;28;20534;-60
2022/03/28 05:52:35;;;;;;;32.08;12.15;;;5.00;52.10;;;;;;5085279;28;20036;-60
2022/03/28 05:55:01;;;;;;;30.73;13.25;;;5.10;52.20;;;;;;5085936;28;20025;-60
2022/03/28 05:57:26;;;;;;;39.38;13.18;;;5.10;52.20;;;;;;5086142;28;20031;-60
2022/03/28 05:59:52;;;;;;;28.70;12.27;;;5.20;52.20;;;;;;5086386;28;20082;-60
2022/03/28 06:02:18;;;;;;;30.15;12.32;;;5.30;52.30;;;;;;5089387;28;20032;-60
2022/03/28 06:04:43;;;;;;;24.33;10.55;;;5.30;52.40;;;;;;5086069;28;20115;-60
2022/03/28 06:07:10;;;;;;;30.27;10.32;;;5.70;52.60;;;;;;5092440;28;20059;-59
2022/03/28 06:09:36;;;;;;;23.70;9.88;;;5.60;52.50;;;;;;5080620;28;20027;-60
2022/03/28 06:12:01;;;;;;;25.05;11.35;;;5.80;52.60;;;;;;5081356;28;21347;-60
2022/03/28 06:14:27;;;;;;;26.45;11.18;;;5.70;52.50;;;;;;5064729;28;20115;-60
2022/03/28 06:16:52;;;;;;;22.80;10.10;;;5.80;52.60;;;;;;5098385;28;20032;-62
2022/03/28 06:19:18;;;;;;;28.13;10.80;;;5.90;52.50;;;;;;5081530;28;20020;-61
2022/03/28 06:21:44;;;;;;;37.03;10.50;;;6.20;52.50;;;;;;5084637;28;20044;-59
2022/03/28 06:24:09;;;;;;;19.95;9.68;;;6.10;52.40;;;;;;5081545;28;20024;-61
2022/03/28 06:26:35;;;;;;;25.80;11.30;;;6.20;52.40;;;;;;5070192;28;20028;-60
2022/03/28 06:29:01;;;;;;;20.08;10.25;;;6.40;52.40;;;;;;5086326;28;20029;-60
2022/03/28 06:31:26;;;;;;;26.95;10.20;;;6.50;52.40;;;;;;5080952;28;20052;-60
2022/03/28 06:33:52;;;;;;;25.63;10.75;;;6.60;52.30;;;;;;5086859;28;20056;-60
2022/03/28 06:36:18;;;;;;;25.23;11.88;;;6.70;52.20;;;;;;5086199;28;20050;-60
2022/03/28 06:38:44;;;;;;;24.20;11.88;;;7.00;52.10;;;;;;5087729;28;20025;-60
2022/03/28 06:41:10;;;;;;;27.92;11.60;;;7.00;52.00;;;;;;5066994;28;20047;-60
2022/03/28 06:43:35;;;;;;;21.27;10.30;;;7.10;52.00;;;;;;5079033;28;20088;-61
2022/03/28 06:46:01;;;;;;;17.65;10.10;;;7.30;52.00;;;;;;5067987;28;20028;-60
2022/03/28 06:48:27;;;;;;;20.48;9.65;;;7.40;51.80;;;;;;5087074;28;20074;-60
2022/03/28 06:50:52;;;;;;;20.63;10.60;;;7.60;51.90;;;;;;5085800;28;20083;-60
2022/03/28 06:53:18;;;;;;;19.15;9.70;;;7.70;51.80;;;;;;5083157;28;20024;-60
2022/03/28 06:55:44;;;;;;;36.55;10.23;;;7.90;52.30;;;;;;5068976;28;20056;-60
2022/03/28 06:58:09;;;;;;;32.80;9.27;;;8.00;51.50;;;;;;5085160;28;20052;-60
2022/03/28 07:00:36;;;;;;;24.83;9.70;;;8.20;51.40;;;;;;5085666;28;20051;-60
2022/03/28 07:03:02;;;;;;;21.92;9.32;;;8.30;51.30;;;;;;5074692;28;20020;-60
2022/03/28 07:05:28;;;;;;;21.23;10.65;;;8.50;51.10;;;;;;5089841;28;20100;-61
2022/03/28 07:07:55;;;;;;;20.63;10.18;;;8.60;51.00;;;;;;5107291;28;20027;-60
2022/03/28 07:10:22;;;;;;;19.67;9.73;;;8.80;50.90;;;;;;5099257;28;20016;-60
2022/03/28 07:12:48;;;;;;;17.17;9.48;;;9.00;50.80;;;;;;5086642;28;20039;-61
2022/03/28 07:15:14;;;;;;;21.70;9.75;;;9.10;50.60;;;;;;5088747;28;20024;-61
2022/03/28 07:17:48;;;;;;;28.27;10.63;;;9.30;50.50;;;;;;5088138;28;20171;-60
2022/03/28 07:20:14;;;;;;;24.88;9.70;;;9.50;50.80;;;;;;5070302;28;20512;-61
2022/03/28 07:22:40;;;;;;;20.20;10.55;;;9.60;50.30;;;;;;5084030;28;20033;-60
2022/03/28 07:25:07;;;;;;;30.70;11.15;;;9.80;50.20;;;;;;5083670;28;20031;-60
2022/03/28 07:27:38;;;;;;;21.42;9.93;;;9.90;50.00;;;;;;5085386;28;20092;-60
2022/03/28 07:30:04;;;;;;;28.38;10.13;;;10.10;50.10;;;;;;5078297;28;20009;-60
2022/03/28 07:32:30;;;;;;;25.98;10.38;;;10.30;49.80;;;;;;5074323;28;20024;-61
2022/03/28 07:34:55;;;;;;;21.02;10.77;;;10.50;49.60;;;;;;5082384;28;20042;-60
2022/03/28 07:37:22;;;;;;;29.00;10.82;;;10.60;49.50;;;;;;5084330;28;20027;-61
2022/03/28 07:39:48;;;;;;;26.00;11.02;;;10.80;49.40;;;;;;5082423;28;20039;-60
2022/03/28 07:42:13;;;;;;;23.40;10.45;;;11.00;49.30;;;;;;5085170;28;20107;-60
2022/03/28 07:44:41;;;;;;;22.60;10.55;;;11.20;49.10;;;;;;5085604;28;20036;-60
2022/03/28 07:47:08;;;;;;;26.73;11.25;;;11.40;48.90;;;;;;5068540;28;20036;-60
2022/03/28 07:49:35;;;;;;;19.38;11.07;;;11.60;48.70;;;;;;5085077;28;20048;-61
2022/03/28 07:52:02;;;;;;;24.02;10.65;;;11.80;48.50;;;;;;5066666;28;20045;-60
2022/03/28 07:54:29;;;;;;;25.35;10.68;;;11.90;48.90;;;;;;5075115;28;20024;-61
2022/03/28 07:56:55;;;;;;;25.52;11.15;;;12.10;48.20;;;;;;5065649;28;20021;-61
2022/03/28 07:59:21;;;;;;;23.65;11.82;;;12.40;48.10;;;;;;5073952;28;20071;-61
2022/03/28 08:01:46;;;;;;;26.48;11.55;;;12.50;47.80;;;;;;5085229;28;20527;-61
2022/03/28 08:04:12;;;;;;;21.33;10.55;;;12.70;47.80;;;;;;5084685;28;20024;-60
2022/03/28 08:06:38;;;;;;;18.67;10.75;;;12.90;47.60;;;;;;5080595;28;20451;-61
2022/03/28 08:09:04;;;;;;;24.38;10.93;;;13.10;47.30;;;;;;5065385;28;20029;-60
2022/03/28 08:11:30;;;;;;;22.55;11.88;;;13.20;47.20;;;;;;5075050;28;20031;-61
2022/03/28 08:13:56;;;;;;;28.35;12.05;;;13.40;47.00;;;;;;5082790;28;20483;-60
2022/03/28 08:16:21;;;;;;;27.50;12.30;;;13.60;46.90;;;;;;5080427;28;20032;-61
2022/03/28 08:18:47;;;;;;;23.42;11.55;;;13.80;46.60;;;;;;5086951;28;20095;-61
2022/03/28 08:21:13;;;;;;;25.80;13.02;;;14.00;46.60;;;;;;5080777;28;20036;-61
2022/03/28 08:23:39;;;;;;;31.08;12.88;;;14.10;46.60;;;;;;5071639;28;20025;-60
2022/03/28 08:26:04;;;;;;;23.50;12.30;;;14.30;46.50;;;;;;5080689;28;20036;-60
2022/03/28 08:28:31;;;;;;;25.50;13.20;;;14.50;46.20;;;;;;5084651;28;20078;-61
2022/03/28 08:30:57;;;;;;;21.92;12.15;;;14.70;46.10;;;;;;5083061;28;20043;-60
2022/03/28 08:33:23;;;;;;;25.05;12.98;;;14.80;45.70;;;;;;5078606;28;20025;-62
2022/03/28 08:35:48;;;;;;;25.52;13.15;;;15.00;45.50;;;;;;5083700;28;20039;-60
2022/03/28 08:38:15;;;;;;;24.05;12.75;;;15.10;45.50;;;;;;5065852;28;20096;-60
2022/03/28 08:40:42;;;;;;;24.63;13.38;;;15.30;45.10;;;;;;5082121;28;20384;-60
2022/03/28 08:43:08;;;;;;;27.25;12.82;;;15.50;44.70;;;;;;5074237;28;20031;-61
2022/03/28 08:45:38;;;;;;;20.17;12.32;;;15.70;44.60;;;;;;5082980;28;20021;-61
2022/03/28 08:48:06;;;;;;;21.70;12.15;;;15.90;44.20;;;;;;5079806;28;20032;-61
2022/03/28 08:50:35;;;;;;;34.67;13.65;;;16.00;44.10;;;;;;5089799;28;20029;-60
2022/03/28 08:53:01;;;;;;;33.03;14.73;;;16.20;43.80;;;;;;5081907;28;20499;-61
2022/03/28 08:55:26;;;;;;;20.83;12.73;;;16.40;43.40;;;;;;5090851;28;20039;-60
2022/03/28 08:57:52;;;;;;;25.05;13.52;;;16.50;43.00;;;;;;5026331;28;20040;-60
2022/03/28 09:00:18;;;;;;;21.38;12.40;;;16.60;43.00;;;;;;5095866;28;20036;-61
2022/03/28 09:02:47;;;;;;;24.30;12.57;;;16.80;42.80;;;;;;5092138;28;20139;-61
2022/03/28 09:05:18;;;;;;;26.15;12.88;;;17.00;42.60;;;;;;5096117;28;20460;-61
2022/03/28 09:07:44;;;;;;;23.05;13.57;;;17.10;42.30;;;;;;5095602;28;20135;-61
2022/03/28 09:10:16;;;;;;;22.52;13.50;;;17.30;42.40;;;;;;5099274;28;20024;-61
2022/03/28 09:13:05;;;;;;;21.40;13.55;;;17.50;42.00;;;;;;5088921;28;20088;-61
2022/03/28 09:16:06;;;;;;;33.75;14.75;;;17.70;41.00;;;;;;5097681;28;20016;-61
2022/03/28 09:18:34;;;;;;;25.23;13.13;;;17.90;40.90;;;;;;5065833;28;20040;-61
2022/03/28 09:21:14;;;;;;;26.52;13.85;;;18.10;40.80;;;;;;5092612;28;20028;-61
2022/03/28 09:23:48;;;;;;;24.98;13.35;;;18.30;40.20;;;;;;5079712;28;20017;-61
2022/03/28 09:26:23;;;;;;;29.35;14.52;;;18.50;40.10;;;;;;5091808;28;20029;-62
2022/03/28 09:28:53;;;;;;;26.27;14.82;;;18.60;39.50;;;;;;5074886;28;20029;-61
2022/03/28 09:31:20;;;;;;;34.22;15.80;;;18.80;39.50;;;;;;5087865;28;20028;-62
2022/03/28 09:33:59;;;;;;;28.67;15.57;;;19.00;39.30;;;;;;5086469;28;20426;-60
2022/03/28 09:36:40;;;;;;;24.90;14.88;;;19.10;38.20;;;;;;5083452;28;20131;-62
2022/03/28 09:39:09;;;;;;;29.63;15.13;;;19.30;37.90;;;;;;5062104;28;20096;-61
2022/03/28 09:41:35;;;;;;;30.20;15.77;;;19.40;38.20;;;;;;5089896;28;20428;-61
2022/03/28 09:44:01;;;;;;;38.00;15.50;;;19.60;37.70;;;;;;5080704;28;20032;-61
2022/03/28 09:46:29;;;;;;;28.52;15.45;;;19.70;37.30;;;;;;5088959;28;20039;-61
2022/03/28 09:48:57;;;;;;;26.70;15.05;;;19.80;36.90;;;;;;5090582;28;20116;-61
2022/03/28 09:51:27;;;;;;;28.92;15.45;;;19.90;36.80;;;;;;5086433;28;20036;-61
2022/03/28 09:53:52;;;;;;;23.85;14.05;;;20.10;36.40;;;;;;5091335;28;20043;-61
2022/03/28 09:56:18;;;;;;;27.48;16.10;;;20.20;36.50;;;;;;5084033;28;20036;-61
2022/03/28 09:59:04;;;;;;;26.30;15.23;;;20.30;36.00;;;;;;4998420;28;20132;-61
2022/03/28 10:01:32;;;;;;;25.23;13.80;;;20.40;34.70;;;;;;5075461;28;20047;-61
2022/03/28 10:04:07;;;;;;;28.38;15.48;;;20.50;35.90;;;;;;5090104;28;20021;-61
2022/03/28 10:06:38;;;;;;;23.80;14.85;;;20.70;35.80;;;;;;5079310;28;20056;-63
2022/03/28 10:09:05;;;;;;;25.10;14.43;;;20.80;35.70;;;;;;5090216;28;20047;-62
2022/03/28 10:11:31;;;;;;;26.38;14.95;;;20.90;35.40;;;;;;5078484;28;20036;-61
2022/03/28 10:13:57;;;;;;;31.42;15.13;;;21.00;35.10;;;;;;5087566;28;20028;-61
2022/03/28 10:16:23;;;;;;;24.80;14.55;;;21.20;35.00;;;;;;5080856;28;20020;-61
2022/03/28 10:18:50;;;;;;;31.98;15.40;;;21.30;34.80;;;;;;5087457;28;20043;-62
2022/03/28 10:21:37;;;;;;;25.92;14.18;;;21.40;34.10;;;;;;5082041;28;20033;-61
2022/03/28 10:24:18;;;;;;;29.92;15.32;;;21.50;33.20;;;;;;5082954;28;20056;-61
2022/03/28 10:26:48;;;;;;;25.00;14.20;;;21.60;33.00;;;;;;5077766;28;20389;-61
2022/03/28 10:29:17;;;;;;;24.73;13.82;;;21.70;32.90;;;;;;5084960;28;20032;-61
2022/03/28 10:32:00;;;;;;;25.00;14.45;;;21.70;32.80;;;;;;5085651;28;20035;-61
2022/03/28 10:34:48;;;;;;;22.30;13.60;;;21.80;31.80;;;;;;5086721;28;20044;-61
2022/03/28 10:37:31;;;;;;;25.83;14.15;;;21.90;31.90;;;;;;5089566;28;20027;-61
2022/03/28 10:40:26;;;;;;;26.75;13.85;;;22.00;32.00;;;;;;5079363;28;20028;-63
2022/03/28 10:43:10;;;;;;;26.08;14.75;;;22.10;31.70;;;;;;5054196;28;20044;-61
2022/03/28 10:45:46;;;;;;;22.90;13.55;;;22.20;31.30;;;;;;5084715;28;20039;-61
2022/03/28 10:48:12;;;;;;;22.35;13.85;;;22.20;31.60;;;;;;5085694;28;20021;-61
2022/03/28 10:50:43;;;;;;;25.27;13.55;;;22.30;31.70;;;;;;5082993;28;20024;-61
2022/03/28 10:53:12;;;;;;;23.70;13.77;;;22.40;30.40;;;;;;5082093;28;20035;-61
2022/03/28 10:55:51;;;;;;;28.90;13.77;;;22.50;31.10;;;;;;5081184;28;20029;-62
2022/03/28 10:58:24;;;;;;;27.98;13.98;;;22.60;29.80;;;;;;5071704;28;20024;-61
2022/03/28 11:01:08;;;;;;;24.30;13.15;;;22.70;30.00;;;;;;5076003;28;20041;-61
2022/03/28 11:03:43;;;;;;;21.40;12.75;;;22.90;29.10;;;;;;5085368;28;20037;-61
2022/03/28 11:06:09;;;;;;;21.83;14.15;;;22.90;30.20;;;;;;5083421;28;20066;-61
2022/03/28 11:08:36;;;;;;;27.02;13.50;;;23.00;29.80;;;;;;5085302;28;20020;-61
2022/03/28 11:11:23;;;;;;;26.08;13.45;;;23.20;29.30;;;;;;5085205;28;20728;-61
2022/03/28 11:14:03;;;;;;;19.58;12.30;;;23.20;28.30;;;;;;5088573;28;20032;-61
2022/03/28 11:16:54;;;;;;;20.52;12.85;;;23.30;28.40;;;;;;5066774;28;20028;-61
2022/03/28 11:19:33;;;;;;;25.02;12.77;;;23.40;27.00;;;;;;5085699;28;20465;-62
2022/03/28 11:22:04;;;;;;;19.65;11.88;;;23.50;28.10;;;;;;5085903;28;20032;-61
2022/03/28 11:24:49;;;;;;;23.10;12.98;;;23.60;28.10;;;;;;5085017;28;20134;-62
2022/03/28 11:27:16;;;;;;;25.60;12.88;;;23.60;28.00;;;;;;5076858;28;20024;-62
2022/03/28 11:29:44;;;;;;;25.55;12.95;;;23.70;28.30;;;;;;5085097;28;20024;-60
2022/03/28 11:32:12;;;;;;;21.60;13.32;;;23.90;28.10;;;;;;5091927;28;20031;-61
2022/03/28 11:34:38;;;;;;;25.48;13.20;;;23.90;27.90;;;;;;5085780;28;20357;-61
2022/03/28 11:37:05;;;;;;;21.23;12.68;;;24.00;27.80;;;;;;5077650;28;20158;-61
2022/03/28 11:39:32;;;;;;;22.20;12.70;;;24.10;27.30;;;;;;5086747;28;20387;-61
2022/03/28 11:42:00;;;;;;;19.70;12.02;;;24.20;26.40;;;;;;5089474;28;20415;-61
2022/03/28 11:44:26;;;;;;;22.02;12.55;;;24.20;26.20;;;;;;5085398;28;20107;-61
2022/03/28 11:47:01;;;;;;;23.08;14.25;;;24.30;26.60;;;;;;5091549;28;20029;-61
2022/03/28 11:49:26;;;;;;;;;;;24.30;25.60;;;;;;5082082;28;20040;-61
2022/03/28 11:51:52;;;;;;;16.13;11.02;;;24.30;27.00;;;;;;5084411;28;20421;-61
2022/03/28 11:54:20;;;;;;;20.95;13.15;;;24.40;26.70;;;;;;5093854;28;20029;-61
2022/03/28 11:59:39;;;;;;;20.15;12.35;;;24.40;26.20;;;;;;5079070;28;20034;-61
2022/03/28 12:02:08;;;;;;;20.52;11.95;;;24.40;25.90;;;;;;5082160;28;20519;-62
2022/03/28 12:04:43;;;;;;;21.77;12.40;;;24.50;26.10;;;;;;5097136;28;20039;-61
2022/03/28 12:07:09;;;;;;;21.77;12.05;;;24.50;25.40;;;;;;5079899;28;20029;-62
2022/03/28 12:09:39;;;;;;;24.67;13.48;;;24.60;25.70;;;;;;5085164;28;20036;-62
2022/03/28 12:12:05;;;;;;;22.15;11.75;;;24.60;24.30;;;;;;5082838;28;20082;-61
2022/03/28 12:14:32;;;;;;;19.63;12.75;;;24.70;24.80;;;;;;5077249;28;20036;-61
2022/03/28 12:16:58;;;;;;;18.65;12.10;;;24.70;24.70;;;;;;5082095;28;20040;-62
2022/03/28 12:19:26;;;;;;;22.42;12.07;;;24.70;24.70;;;;;;5087872;28;20024;-61
2022/03/28 12:21:54;;;;;;;19.55;11.90;;;24.70;24.70;;;;;;5083264;28;20068;-61
2022/03/28 12:24:21;;;;;;;19.55;10.88;;;24.80;25.10;;;;;;5073258;28;20536;-62
2022/03/28 12:26:51;;;;;;;19.83;11.32;;;24.90;25.30;;;;;;5091452;28;20457;-61
2022/03/28 12:29:17;;;;;;;22.13;12.85;;;25.00;24.70;;;;;;5083643;28;20067;-62
2022/03/28 12:31:44;;;;;;;23.42;12.30;;;25.10;24.40;;;;;;5070752;28;20032;-62
2022/03/28 12:34:11;;;;;;;24.08;13.63;;;25.20;23.80;;;;;;5084925;28;20033;-61
2022/03/28 12:36:37;;;;;;;18.63;12.52;;;25.30;23.70;;;;;;5084030;28;20036;-61
2022/03/28 12:39:08;;;;;;;20.73;11.60;;;25.30;23.30;;;;;;5084957;28;20040;-62
2022/03/28 12:41:44;;;;;;;19.17;11.73;;;25.20;23.30;;;;;;5086049;28;20036;-62
2022/03/28 12:44:17;;;;;;;16.98;12.27;;;25.20;23.60;;;;;;5082299;28;20088;-62
2022/03/28 12:46:44;;;;;;;20.45;12.75;;;25.20;23.10;;;;;;5087333;28;20027;-62
2022/03/28 12:49:14;;;;;;;22.25;12.68;;;25.20;23.00;;;;;;5086840;28;20040;-62